Time;durP1;ratioP1;P1;durP2;ratioP2;P2;SDS_P1;SDS_P2;PMS_P1;PMS_P2;Temp;Humidity;BMP_temperature;BMP_pressure;BME280_temperature;BME280_humidity;BME280_pressure;Samples;Min_cycle;Max_cycle;Signal;HPM_P1;HPM_P2
2022/07/08 00:01:33;;;;;;;7.32;2.58;;;;;;;11.88;100.00;102513.69;5071645;28;20031;-54
2022/07/08 00:03:59;;;;;;;9.95;2.58;;;;;;;11.88;100.00;102516.34;5064267;28;20485;-53
2022/07/08 00:06:24;;;;;;;5.30;3.00;;;;;;;11.87;100.00;102519.97;5061484;28;20037;-54
2022/07/08 00:08:49;;;;;;;8.73;3.05;;;;;;;11.82;100.00;102518.72;5051349;28;20040;-50
2022/07/08 00:11:15;;;;;;;7.07;2.95;;;;;;;11.73;100.00;102515.16;5061132;28;20052;-51
2022/07/08 00:13:40;;;;;;;5.07;3.65;;;;;;;11.61;100.00;102514.50;5064596;28;20029;-54
2022/07/08 00:16:06;;;;;;;6.10;2.38;;;;;;;11.57;100.00;102513.97;5061847;28;20035;-48
2022/07/08 00:18:31;;;;;;;2.58;2.08;;;;;;;11.60;100.00;102518.16;5049933;28;20028;-51
2022/07/08 00:20:57;;;;;;;4.95;2.55;;;;;;;11.67;100.00;102516.59;5052225;28;20052;-53
2022/07/08 00:23:22;;;;;;;7.20;2.50;;;;;;;11.72;100.00;102524.94;5067966;28;20473;-52
2022/07/08 00:25:48;;;;;;;7.32;3.10;;;;;;;11.70;100.00;102526.91;5063646;28;20100;-54
2022/07/08 00:28:13;;;;;;;3.85;2.58;;;;;;;11.77;100.00;102527.13;5063806;28;20376;-51
2022/07/08 00:30:38;;;;;;;5.28;2.40;;;;;;;11.77;100.00;102517.38;5058089;28;20016;-53
2022/07/08 00:33:04;;;;;;;5.07;3.33;;;;;;;11.77;100.00;102520.03;5050097;28;20025;-52
2022/07/08 00:35:29;;;;;;;4.18;2.60;;;;;;;11.72;100.00;102506.34;5046636;28;20033;-48
2022/07/08 00:37:54;;;;;;;4.40;1.92;;;;;;;11.68;100.00;102512.09;5058789;28;20111;-52
2022/07/08 00:40:20;;;;;;;7.22;4.50;;;;;;;11.61;100.00;102514.50;5054114;28;20056;-48
2022/07/08 00:42:48;;;;;;;8.70;2.80;;;;;;;11.54;100.00;102514.28;5054801;28;20052;-50
2022/07/08 00:45:15;;;;;;;2.72;2.53;;;;;;;11.48;100.00;102512.19;5063866;28;20397;-50
2022/07/08 00:47:40;;;;;;;2.85;2.50;;;;;;;11.38;100.00;102516.72;5069076;28;20024;-48
2022/07/08 00:50:06;;;;;;;3.95;1.90;;;;;;;11.34;100.00;102510.03;5062425;28;20542;-49
2022/07/08 00:52:32;;;;;;;3.45;3.15;;;;;;;11.32;100.00;102506.69;5057305;28;20025;-52
2022/07/08 00:54:57;;;;;;;5.90;2.28;;;;;;;11.31;100.00;102513.00;5061436;28;20504;-53
2022/07/08 00:57:24;;;;;;;3.13;2.25;;;;;;;11.28;100.00;102508.81;5063449;28;20050;-50
2022/07/08 00:59:49;;;;;;;2.95;2.25;;;;;;;11.30;100.00;102511.28;5063675;28;20082;-49
2022/07/08 01:02:15;;;;;;;4.78;3.00;;;;;;;11.34;100.00;102507.38;5057343;28;20033;-50
2022/07/08 01:04:40;;;;;;;3.00;2.70;;;;;;;11.39;100.00;102518.41;5047746;28;20549;-51
2022/07/08 01:07:06;;;;;;;5.13;2.58;;;;;;;11.44;100.00;102515.31;5065830;28;20379;-49
2022/07/08 01:09:31;;;;;;;4.55;3.83;;;;;;;11.56;100.00;102514.09;5049909;28;20064;-54
2022/07/08 01:11:57;;;;;;;2.20;2.10;;;;;;;11.66;100.00;102519.38;5060781;28;20458;-51
2022/07/08 01:14:23;;;;;;;3.85;2.60;;;;;;;11.81;100.00;102520.53;5060334;28;20032;-48
2022/07/08 01:16:48;;;;;;;9.35;3.22;;;;;;;11.79;100.00;102514.53;5061421;28;20477;-52
2022/07/08 01:19:14;;;;;;;5.93;3.60;;;;;;;12.02;100.00;102514.97;5052335;28;20032;-54
2022/07/08 01:21:39;;;;;;;5.45;3.80;;;;;;;12.15;100.00;102517.25;5056910;28;20111;-50
2022/07/08 01:24:04;;;;;;;4.72;3.28;;;;;;;12.09;100.00;102515.22;5037296;28;20178;-52
2022/07/08 01:26:30;;;;;;;4.07;3.65;;;;;;;12.18;100.00;102519.63;5055900;28;20040;-50
2022/07/08 01:28:55;;;;;;;7.82;3.75;;;;;;;12.14;100.00;102523.59;5055091;28;20024;-54
2022/07/08 01:31:21;;;;;;;5.43;4.57;;;;;;;12.06;100.00;102515.53;5051063;28;20025;-53
2022/07/08 01:33:46;;;;;;;3.75;3.08;;;;;;;12.05;100.00;102519.16;5060089;28;20120;-47
2022/07/08 01:36:12;;;;;;;5.65;3.78;;;;;;;12.06;100.00;102519.03;5061245;28;20051;-54
2022/07/08 01:38:37;;;;;;;3.83;3.35;;;;;;;12.09;100.00;102521.38;5050110;28;20556;-54
2022/07/08 01:41:03;;;;;;;4.13;2.97;;;;;;;11.99;100.00;102510.81;5066050;28;20415;-52
2022/07/08 01:43:28;;;;;;;2.92;2.55;;;;;;;11.91;100.00;102508.06;5051822;28;20513;-51
2022/07/08 01:45:54;;;;;;;3.55;2.90;;;;;;;11.87;100.00;102512.00;5068671;28;20066;-54
2022/07/08 01:48:19;;;;;;;6.07;3.00;;;;;;;11.77;100.00;102517.38;5054172;28;20035;-49
2022/07/08 01:50:44;;;;;;;5.75;2.90;;;;;;;11.73;100.00;102520.47;5073305;28;20035;-48
2022/07/08 01:53:11;;;;;;;2.70;2.50;;;;;;;11.65;100.00;102518.53;5052378;28;20029;-51
2022/07/08 01:55:37;;;;;;;3.05;2.85;;;;;;;11.55;100.00;102515.09;5068572;28;20077;-52
2022/07/08 01:58:02;;;;;;;3.42;2.50;;;;;;;11.51;100.00;102516.38;5061422;28;20048;-49
2022/07/08 02:00:27;;;;;;;8.45;2.97;;;;;;;11.48;100.00;102516.66;5051826;28;20025;-50
2022/07/08 02:02:53;;;;;;;3.30;3.00;;;;;;;11.40;100.00;102528.03;5049749;28;20035;-51
2022/07/08 02:05:18;;;;;;;3.67;3.35;;;;;;;11.34;100.00;102532.09;5070248;28;20488;-49
2022/07/08 02:07:44;;;;;;;5.75;2.83;;;;;;;11.26;100.00;102531.19;5056977;28;20028;-50
2022/07/08 02:10:10;;;;;;;4.03;2.70;;;;;;;11.16;100.00;102533.03;5051222;28;20069;-51
2022/07/08 02:12:35;;;;;;;2.83;2.63;;;;;;;11.10;100.00;102529.97;5047657;28;20393;-50
2022/07/08 02:15:04;;;;;;;2.88;2.67;;;;;;;11.01;100.00;102524.69;5049846;28;20043;-54
2022/07/08 02:17:35;;;;;;;3.75;3.20;;;;;;;10.93;100.00;102512.13;5060978;28;20097;-52
2022/07/08 02:20:01;;;;;;;3.25;2.95;;;;;;;10.86;100.00;102519.81;5060854;28;20020;-49
2022/07/08 02:22:27;;;;;;;4.35;3.67;;;;;;;10.83;100.00;102521.94;5058822;28;20049;-54
2022/07/08 02:24:53;;;;;;;3.38;3.08;;;;;;;10.78;100.00;102513.56;5051024;28;20047;-51
2022/07/08 02:27:18;;;;;;;3.58;3.28;;;;;;;10.75;100.00;102519.16;5063720;28;20032;-53
2022/07/08 02:29:44;;;;;;;4.90;2.92;;;;;;;10.69;100.00;102517.91;5060075;28;20024;-50
2022/07/08 02:32:10;;;;;;;3.42;3.13;;;;;;;10.64;100.00;102520.16;5055399;28;20055;-51
2022/07/08 02:34:35;;;;;;;2.92;2.50;;;;;;;10.60;100.00;102532.84;5050718;28;20031;-53
2022/07/08 02:37:01;;;;;;;2.67;2.47;;;;;;;10.59;100.00;102512.63;5056860;28;20067;-49
2022/07/08 02:39:26;;;;;;;3.72;2.90;;;;;;;10.57;100.00;102521.69;5049783;28;20124;-48
2022/07/08 02:41:52;;;;;;;3.53;3.13;;;;;;;10.53;100.00;102522.94;5056288;28;20032;-54
2022/07/08 02:44:18;;;;;;;3.28;2.97;;;;;;;10.47;100.00;102524.34;5053492;28;20428;-49
2022/07/08 02:46:44;;;;;;;3.28;3.05;;;;;;;10.45;100.00;102516.53;5061830;28;20032;-51
2022/07/08 02:49:10;;;;;;;3.13;2.85;;;;;;;10.44;100.00;102514.03;5051591;28;20047;-50
2022/07/08 02:51:36;;;;;;;5.28;3.17;;;;;;;10.44;100.00;102519.31;5064168;28;20029;-50
2022/07/08 02:54:02;;;;;;;3.30;2.90;;;;;;;10.39;100.00;102521.56;5059320;28;20389;-49
2022/07/08 02:56:29;;;;;;;4.63;3.25;;;;;;;10.31;100.00;102519.59;5053363;28;20049;-52
2022/07/08 02:58:54;;;;;;;5.53;3.03;;;;;;;10.31;100.00;102521.44;5061609;28;20104;-53
2022/07/08 03:01:20;;;;;;;3.20;2.90;;;;;;;10.29;100.00;102513.59;5056616;28;20159;-50
2022/07/08 03:03:46;;;;;;;4.15;2.72;;;;;;;10.28;100.00;102527.00;5059716;28;20032;-49
2022/07/08 03:06:11;;;;;;;3.40;2.95;;;;;;;10.25;100.00;102523.63;5059889;28;20040;-52
2022/07/08 03:08:37;;;;;;;6.93;2.83;;;;;;;10.21;100.00;102521.38;5048595;28;20444;-49
2022/07/08 03:11:02;;;;;;;3.75;3.45;;;;;;;10.15;100.00;102517.47;5061213;28;20501;-53
2022/07/08 03:13:27;;;;;;;6.57;3.30;;;;;;;10.08;100.00;102524.31;5059155;28;20051;-49
2022/07/08 03:15:53;;;;;;;3.80;3.25;;;;;;;10.03;100.00;102524.69;5052235;28;20055;-49
2022/07/08 03:18:18;;;;;;;7.00;4.25;;;;;;;9.99;100.00;102520.66;5047868;28;20048;-52
2022/07/08 03:20:44;;;;;;;4.47;3.95;;;;;;;10.01;100.00;102525.81;5055948;28;20509;-52
2022/07/08 03:23:09;;;;;;;4.95;4.07;;;;;;;9.98;100.00;102529.56;5063469;28;20028;-54
2022/07/08 03:25:34;;;;;;;4.72;4.28;;;;;;;9.91;100.00;102525.78;5051159;28;20447;-52
2022/07/08 03:28:00;;;;;;;5.43;4.15;;;;;;;9.83;100.00;102517.69;5055581;28;20048;-51
2022/07/08 03:30:26;;;;;;;4.07;3.28;;;;;;;9.78;100.00;102523.44;5055356;28;20020;-51
2022/07/08 03:32:51;;;;;;;4.40;4.00;;;;;;;9.74;100.00;102529.13;5053582;28;20039;-53
2022/07/08 03:35:17;;;;;;;4.40;4.10;;;;;;;9.69;100.00;102531.34;5060384;28;20081;-52
2022/07/08 03:37:43;;;;;;;10.25;4.22;;;;;;;9.69;100.00;102540.13;5057359;28;20031;-51
2022/07/08 03:43:04;;;;;;;8.45;5.15;;;;;;;9.70;100.00;102541.78;5020507;28;20367;-49
2022/07/08 03:45:29;;;;;;;5.68;4.30;;;;;;;9.68;100.00;102533.16;5067203;28;20039;-48
2022/07/08 03:47:56;;;;;;;4.85;4.43;;;;;;;9.72;100.00;102537.19;5058206;28;20085;-49
2022/07/08 03:50:21;;;;;;;5.68;5.13;;;;;;;9.68;100.00;102546.41;5060489;28;20056;-49
2022/07/08 03:52:47;;;;;;;7.90;5.65;;;;;;;9.68;100.00;102557.00;5070302;28;20104;-49
2022/07/08 03:55:13;;;;;;;7.05;5.10;;;;;;;9.68;100.00;102550.84;5052790;28;20478;-49
2022/07/08 03:57:38;;;;;;;5.57;4.47;;;;;;;9.72;100.00;102550.44;5066233;28;20029;-50
2022/07/08 04:00:07;;;;;;;4.80;3.92;;;;;;;9.74;100.00;102558.25;5063926;28;20458;-52
2022/07/08 04:02:32;;;;;;;4.75;4.35;;;;;;;9.72;100.00;102550.44;5057394;28;20024;-50
2022/07/08 04:04:58;;;;;;;7.75;5.05;;;;;;;9.72;100.00;102555.75;5060031;28;20047;-48
2022/07/08 04:07:23;;;;;;;5.05;4.10;;;;;;;9.71;100.00;102556.72;5064262;28;20085;-51
2022/07/08 04:09:48;;;;;;;5.88;5.28;;;;;;;9.76;100.00;102559.81;5049584;28;20032;-51
2022/07/08 04:12:14;;;;;;;7.05;5.13;;;;;;;9.78;100.00;102563.16;5060898;28;20065;-47
2022/07/08 04:14:39;;;;;;;7.35;4.43;;;;;;;9.75;100.00;102573.16;5052370;28;20049;-52
2022/07/08 04:17:05;;;;;;;9.77;6.53;;;;;;;9.71;100.00;102571.78;5060300;28;20036;-52
2022/07/08 04:19:30;;;;;;;7.93;5.45;;;;;;;9.69;100.00;102566.59;5055326;28;20025;-55
2022/07/08 04:21:55;;;;;;;8.10;5.85;;;;;;;9.68;100.00;102574.69;5052709;28;20036;-54
2022/07/08 04:24:21;;;;;;;4.90;4.38;;;;;;;9.70;100.00;102572.75;5063878;28;20044;-55
2022/07/08 04:26:46;;;;;;;7.05;6.15;;;;;;;9.72;100.00;102576.94;5053296;28;20519;-51
2022/07/08 04:29:12;;;;;;;7.25;5.95;;;;;;;9.75;100.00;102581.94;5061496;28;20116;-50
2022/07/08 04:31:37;;;;;;;7.03;5.55;;;;;;;9.74;100.00;102580.28;5060357;28;20017;-53
2022/07/08 04:34:02;;;;;;;8.80;6.57;;;;;;;9.74;100.00;102584.75;5064498;28;20518;-49
2022/07/08 04:36:28;;;;;;;8.32;5.95;;;;;;;9.72;100.00;102584.88;5055291;28;20055;-55
2022/07/08 04:38:53;;;;;;;6.47;4.85;;;;;;;9.69;100.00;102581.66;5058501;28;20062;-53
2022/07/08 04:41:19;;;;;;;5.32;4.82;;;;;;;9.65;100.00;102578.44;5051657;28;20772;-51
2022/07/08 04:43:44;;;;;;;6.85;6.15;;;;;;;9.65;100.00;102577.59;5058311;28;20315;-49
2022/07/08 04:46:11;;;;;;;6.63;5.00;;;;;;;9.68;100.00;102587.91;5066545;28;20437;-54
2022/07/08 04:48:36;;;;;;;5.57;5.03;;;;;;;9.70;100.00;102586.81;5061009;28;20465;-52
2022/07/08 04:51:02;;;;;;;5.53;4.82;;;;;;;9.71;100.00;102583.22;5061529;28;20033;-51
2022/07/08 04:53:28;;;;;;;5.55;5.03;;;;;;;9.71;100.00;102582.38;5047685;28;20111;-52
2022/07/08 04:55:53;;;;;;;6.95;5.28;;;;;;;9.71;100.00;102588.50;5051055;28;20439;-53
2022/07/08 04:58:19;;;;;;;8.65;5.45;;;;;;;9.74;100.00;102590.88;5065475;28;20041;-50
2022/07/08 05:00:44;;;;;;;5.28;4.80;;;;;;;9.75;100.00;102589.91;5049909;28;20029;-53
2022/07/08 05:03:09;;;;;;;5.28;4.78;;;;;;;9.77;100.00;102590.59;5053408;28;20033;-50
2022/07/08 05:05:35;;;;;;;4.75;3.85;;;;;;;9.79;100.00;102588.66;5066496;28;20123;-53
2022/07/08 05:08:01;;;;;;;4.00;3.67;;;;;;;9.81;100.00;102594.69;5059656;28;20031;-52
2022/07/08 05:10:27;;;;;;;5.65;5.15;;;;;;;9.88;100.00;102592.31;5048427;28;20115;-51
2022/07/08 05:12:54;;;;;;;4.97;4.43;;;;;;;9.92;100.00;102600.84;5056088;28;20107;-48
2022/07/08 05:15:21;;;;;;;5.65;4.60;;;;;;;9.96;100.00;102602.25;5060767;28;20036;-51
2022/07/08 05:17:51;;;;;;;4.60;3.97;;;;;;;10.00;100.00;102598.34;5049123;28;20031;-50
2022/07/08 05:20:16;;;;;;;5.63;5.05;;;;;;;10.06;100.00;102603.09;5051539;28;20499;-50
2022/07/08 05:22:42;;;;;;;5.70;4.65;;;;;;;10.15;100.00;102604.13;5052428;28;20028;-54
2022/07/08 05:25:08;;;;;;;5.63;4.03;;;;;;;10.22;100.00;102606.09;5069198;28;20158;-52
2022/07/08 05:27:34;;;;;;;6.30;4.93;;;;;;;10.38;100.00;102618.00;5059221;28;20025;-52
2022/07/08 05:30:00;;;;;;;6.43;5.53;;;;;;;10.52;100.00;102614.09;5060996;28;20104;-52
2022/07/08 05:32:25;;;;;;;7.72;4.57;;;;;;;10.56;100.00;102611.03;5057824;28;20032;-48
2022/07/08 05:34:51;;;;;;;9.32;6.05;;;;;;;10.62;100.00;102615.78;5049430;28;20465;-53
2022/07/08 05:37:16;;;;;;;9.75;5.45;;;;;;;10.73;100.00;102608.66;5052036;28;20037;-54
2022/07/08 05:39:42;;;;;;;12.75;6.22;;;;;;;10.81;100.00;102614.94;5057115;28;20037;-52
2022/07/08 05:42:09;;;;;;;6.55;5.25;;;;;;;10.90;100.00;102613.28;5058005;28;20561;-54
2022/07/08 05:44:36;;;;;;;5.45;4.57;;;;;;;11.06;100.00;102613.53;5056527;28;20101;-54
2022/07/08 05:47:02;;;;;;;5.00;4.60;;;;;;;11.19;100.00;102612.38;5061134;28;20039;-51
2022/07/08 05:49:27;;;;;;;5.07;4.57;;;;;;;11.28;100.00;102622.13;5057009;28;20036;-50
2022/07/08 05:51:53;;;;;;;6.97;4.95;;;;;;;11.47;100.00;102623.91;5056182;28;20040;-52
2022/07/08 05:54:18;;;;;;;6.40;4.90;;;;;;;11.57;100.00;102620.25;5054944;28;20058;-54
2022/07/08 05:56:44;;;;;;;4.68;4.28;;;;;;;11.72;100.00;102627.72;5058768;28;20032;-53
2022/07/08 05:59:09;;;;;;;6.60;3.90;;;;;;;11.94;100.00;102631.88;5059439;28;20024;-53
2022/07/08 06:01:35;;;;;;;3.83;3.08;;;;;;;12.12;100.00;102626.59;5051219;28;20055;-50
2022/07/08 06:04:00;;;;;;;4.15;3.85;;;;;;;12.33;100.00;102634.31;5056980;28;20100;-49
2022/07/08 06:06:26;;;;;;;3.80;3.20;;;;;;;12.43;100.00;102635.06;5052461;28;20033;-55
2022/07/08 06:08:51;;;;;;;3.92;3.58;;;;;;;12.61;100.00;102638.59;5058573;28;20077;-55
2022/07/08 06:11:16;;;;;;;4.55;3.42;;;;;;;12.73;100.00;102638.38;5060612;28;20044;-54
2022/07/08 06:13:42;;;;;;;4.25;2.10;;;;;;;12.73;100.00;102641.03;5054245;28;20111;-54
2022/07/08 06:16:07;;;;;;;3.78;2.67;;;;;;;12.85;100.00;102640.63;5055403;28;20508;-54
2022/07/08 06:18:35;;;;;;;3.40;2.80;;;;;;;12.95;100.00;102637.06;5052534;28;20067;-52
2022/07/08 06:21:01;;;;;;;2.25;2.05;;;;;;;13.17;100.00;102636.56;5050270;28;20512;-53
2022/07/08 06:23:26;;;;;;;2.30;1.42;;;;;;;13.23;100.00;102633.25;5048413;28;20114;-55
2022/07/08 06:25:52;;;;;;;3.50;2.10;;;;;;;13.31;100.00;102628.00;5061062;28;20067;-54
2022/07/08 06:28:17;;;;;;;1.85;1.63;;;;;;;13.36;100.00;102632.88;5059687;28;20027;-53
2022/07/08 06:30:42;;;;;;;1.70;1.60;;;;;;;13.42;100.00;102636.75;5051524;28;20027;-53
2022/07/08 06:33:08;;;;;;;1.48;1.35;;;;;;;13.54;100.00;102632.81;5055128;28;20343;-54
2022/07/08 06:35:34;;;;;;;2.50;1.38;;;;;;;13.69;100.00;102633.91;5051124;28;20124;-54
2022/07/08 06:37:59;;;;;;;3.10;1.73;;;;;;;13.77;100.00;102629.63;5056418;28;20017;-52
2022/07/08 06:40:25;;;;;;;2.00;1.90;;;;;;;13.78;100.00;102629.44;5060848;28;20028;-54
2022/07/08 06:42:51;;;;;;;1.70;1.60;;;;;;;14.01;100.00;102632.38;5048328;28;20099;-49
2022/07/08 06:45:16;;;;;;;2.75;1.05;;;;;;;14.19;100.00;102630.41;5055868;28;20037;-55
2022/07/08 06:47:42;;;;;;;2.30;1.83;;;;;;;14.45;100.00;102632.16;5051476;28;20828;-50
2022/07/08 06:50:08;;;;;;;2.03;1.58;;;;;;;14.61;100.00;102626.88;5053601;28;20028;-51
2022/07/08 06:52:34;;;;;;;3.25;1.52;;;;;;;14.70;100.00;102629.56;5032261;28;20492;-50
2022/07/08 06:55:00;;;;;;;2.80;1.58;;;;;;;14.92;100.00;102626.22;5051575;28;20046;-54
2022/07/08 06:57:25;;;;;;;3.03;0.90;;;;;;;14.93;100.00;102617.19;5048529;28;20029;-56
2022/07/08 06:59:51;;;;;;;1.02;1.02;;;;;;;15.05;100.00;102625.72;5055634;28;20473;-53
2022/07/08 07:02:17;;;;;;;4.50;1.10;;;;;;;15.21;100.00;102614.16;5059204;28;20447;-52
2022/07/08 07:04:43;;;;;;;2.40;1.33;;;;;;;15.35;100.00;102613.47;5052430;28;20078;-55
2022/07/08 07:07:08;;;;;;;1.23;1.23;;;;;;;15.48;100.00;102610.25;5051205;28;20056;-49
2022/07/08 07:09:33;;;;;;;1.48;0.57;;;;;;;15.59;100.00;102611.72;5050527;28;20025;-55
2022/07/08 07:11:59;;;;;;;1.50;0.73;;;;;;;15.67;100.00;102596.50;5033023;28;20034;-56
2022/07/08 07:14:25;;;;;;;0.63;0.52;;;;;;;15.80;100.00;102609.34;5055586;28;20029;-56
2022/07/08 07:16:50;;;;;;;2.78;0.70;;;;;;;16.01;100.00;102603.38;5047992;28;20159;-56
2022/07/08 07:19:16;;;;;;;0.70;0.68;;;;;;;16.15;100.00;102593.78;5048207;28;20131;-57
2022/07/08 07:21:41;;;;;;;1.45;1.02;;;;;;;16.30;100.00;102585.81;5052227;28;20029;-57
2022/07/08 07:24:07;;;;;;;0.98;0.65;;;;;;;16.38;100.00;102593.78;5052438;28;20037;-54
2022/07/08 07:26:32;;;;;;;2.28;1.00;;;;;;;16.48;100.00;102585.53;5055118;28;20020;-51
2022/07/08 07:28:57;;;;;;;3.30;0.77;;;;;;;16.62;100.00;102584.72;5064610;28;20025;-50
2022/07/08 07:31:23;;;;;;;2.15;0.47;;;;;;;16.74;100.00;102582.47;5055020;28;20117;-57
2022/07/08 07:33:48;;;;;;;0.65;0.43;;;;;;;16.82;100.00;102586.94;5056100;28;20469;-56
2022/07/08 07:36:14;;;;;;;1.23;0.80;;;;;;;16.83;100.00;102578.75;5058532;28;20033;-54
2022/07/08 07:38:39;;;;;;;0.30;0.30;;;;;;;16.95;100.00;102569.22;5053738;28;20113;-56
2022/07/08 07:41:04;;;;;;;0.60;0.43;;;;;;;17.03;100.00;102568.31;5060305;28;20039;-51
2022/07/08 07:43:30;;;;;;;0.77;0.68;;;;;;;17.13;100.00;102568.88;5050981;28;20033;-49
2022/07/08 07:45:55;;;;;;;1.85;1.10;;;;;;;17.21;100.00;102555.38;5039529;28;20497;-53
2022/07/08 07:48:21;;;;;;;0.47;0.20;;;;;;;17.34;100.00;102561.97;5062216;28;20127;-57
2022/07/08 07:50:46;;;;;;;0.85;0.50;;;;;;;17.50;100.00;102563.59;5056220;28;20780;-56
2022/07/08 07:53:12;;;;;;;0.90;0.80;;;;;;;17.61;100.00;102553.25;5058899;28;20094;-56
2022/07/08 07:55:38;;;;;;;1.00;0.30;;;;;;;17.76;100.00;102553.22;5058282;28;20132;-55
2022/07/08 07:58:04;;;;;;;0.60;0.30;;;;;;;17.98;100.00;102554.13;5060594;28;20418;-51
2022/07/08 08:00:30;;;;;;;1.05;1.05;;;;;;;18.13;100.00;102547.88;5060184;28;20032;-54
2022/07/08 08:02:55;;;;;;;0.47;0.47;;;;;;;18.24;100.00;102555.41;5058727;28;20025;-52
2022/07/08 08:05:21;;;;;;;0.65;0.20;;;;;;;18.38;100.00;102554.53;5055887;28;20071;-58
2022/07/08 08:07:46;;;;;;;2.03;0.85;;;;;;;18.46;100.00;102554.41;5057415;28;20418;-57
2022/07/08 08:10:13;;;;;;;0.65;0.65;;;;;;;18.49;100.00;102548.63;5057760;28;20028;-58
2022/07/08 08:12:39;;;;;;;0.68;0.65;;;;;;;18.59;100.00;102547.47;5058635;28;20516;-57
2022/07/08 08:15:05;;;;;;;1.50;0.80;;;;;;;18.70;100.00;102550.44;5052917;28;20100;-52
2022/07/08 08:17:38;;;;;;;0.63;0.50;;;;;;;18.86;100.00;102541.28;5052957;28;20120;-59
2022/07/08 08:20:05;;;;;;;2.28;0.65;;;;;;;19.04;100.00;102540.78;5052903;28;20025;-56
2022/07/08 08:22:30;;;;;;;0.75;0.73;;;;;;;19.10;100.00;102540.03;5056819;28;20074;-54
2022/07/08 08:24:56;;;;;;;1.35;0.60;;;;;;;18.92;100.00;102537.84;5061159;28;20020;-52
2022/07/08 08:27:21;;;;;;;0.50;0.50;;;;;;;18.90;100.00;102539.88;5062758;28;20031;-56
2022/07/08 08:29:46;;;;;;;0.98;0.93;;;;;;;19.04;100.00;102531.91;5065968;28;20104;-59
2022/07/08 08:32:12;;;;;;;5.05;2.08;;;;;;;19.07;100.00;102529.63;5059494;28;20029;-50
2022/07/08 08:34:37;;;;;;;0.65;0.63;;;;;;;18.99;100.00;102534.34;5062455;28;20061;-49
2022/07/08 08:37:03;;;;;;;1.80;0.68;;;;;;;19.11;100.00;102527.41;5054215;28;20028;-50
2022/07/08 08:39:29;;;;;;;1.33;0.73;;;;;;;19.29;100.00;102533.09;5050480;28;20031;-51
2022/07/08 08:41:54;;;;;;;1.08;0.85;;;;;;;19.43;100.00;102517.81;5060970;28;20040;-55
2022/07/08 08:44:19;;;;;;;0.88;0.77;;;;;;;19.44;100.00;102519.50;5066946;28;20028;-55
2022/07/08 08:46:46;;;;;;;0.90;0.43;;;;;;;19.63;100.00;102512.53;5049317;28;20115;-60
2022/07/08 08:49:11;;;;;;;2.67;0.90;;;;;;;19.75;100.00;102521.72;5061689;28;20037;-58
2022/07/08 08:51:39;;;;;;;0.28;0.28;;;;;;;19.80;100.00;102516.56;5056083;28;20120;-55
2022/07/08 08:54:06;;;;;;;0.40;0.40;;;;;;;19.96;100.00;102517.22;5050376;28;20024;-59
2022/07/08 08:56:32;;;;;;;2.55;0.30;;;;;;;20.07;100.00;102523.84;5057631;28;20055;-51
2022/07/08 08:58:58;;;;;;;0.50;0.30;;;;;;;20.12;100.00;102526.75;5064044;28;20024;-58
2022/07/08 09:01:24;;;;;;;0.82;0.65;;;;;;;20.18;100.00;102515.97;5062346;28;20103;-53
2022/07/08 09:03:49;;;;;;;0.60;0.45;;;;;;;20.27;100.00;102520.13;5061473;28;20033;-47
2022/07/08 09:06:15;;;;;;;0.93;0.60;;;;;;;20.33;100.00;102517.66;5059437;28;20107;-59
2022/07/08 09:08:40;;;;;;;0.30;0.30;;;;;;;20.63;100.00;102510.84;5059805;28;20128;-56
2022/07/08 09:11:06;;;;;;;1.02;0.55;;;;;;;20.83;100.00;102499.19;5062043;28;20430;-52
2022/07/08 09:13:32;;;;;;;0.40;0.40;;;;;;;20.75;100.00;102518.28;5052447;28;20454;-57
2022/07/08 09:15:59;;;;;;;0.65;0.65;;;;;;;20.81;100.00;102506.69;5064147;28;20081;-50
2022/07/08 09:18:35;;;;;;;0.30;0.20;;;;;;;20.61;100.00;102507.53;5062753;28;20064;-56
2022/07/08 09:21:01;;;;;;;0.57;0.10;;;;;;;20.75;100.00;102502.94;5053254;28;20025;-49
2022/07/08 09:23:32;;;;;;;0.50;0.20;;;;;;;20.82;100.00;102505.63;5054128;28;20047;-56
2022/07/08 09:26:03;;;;;;;0.77;0.25;;;;;;;20.82;100.00;102509.16;5058445;28;20111;-52
2022/07/08 09:28:39;;;;;;;0.88;0.50;;;;;;;20.82;100.00;102500.25;5054880;28;20061;-57
2022/07/08 09:31:12;;;;;;;0.75;0.10;;;;;;;21.03;100.00;102502.66;5062337;28;20041;-54
2022/07/08 09:33:38;;;;;;;1.05;0.15;;;;;;;21.28;100.00;102489.31;5055309;28;20043;-57
2022/07/08 09:36:05;;;;;;;3.08;0.25;;;;;;;21.52;100.00;102482.38;5060689;28;20033;-52
2022/07/08 09:38:35;;;;;;;0.77;0.32;;;;;;;21.77;100.00;102484.31;5054019;28;20342;-53
2022/07/08 09:41:05;;;;;;;0.63;0.30;;;;;;;21.84;100.00;102485.13;5057672;28;20040;-51
2022/07/08 09:43:45;;;;;;;0.65;0.20;;;;;;;21.76;100.00;102486.22;5056761;28;20028;-50
2022/07/08 09:46:11;;;;;;;1.48;0.20;;;;;;;21.65;100.00;102489.56;5071639;28;20104;-47
2022/07/08 09:48:36;;;;;;;0.70;0.10;;;;;;;21.48;100.00;102486.56;5053714;28;20151;-55
2022/07/08 09:51:09;;;;;;;1.85;0.30;;;;;;;21.49;100.00;102482.00;5063318;28;20404;-57
2022/07/08 09:53:37;;;;;;;0.20;0.20;;;;;;;21.54;100.00;102477.59;5053400;28;20044;-53
2022/07/08 09:56:03;;;;;;;0.80;0.25;;;;;;;21.66;100.00;102485.00;5050915;28;20097;-56
2022/07/08 09:58:30;;;;;;;1.35;1.02;;;;;;;21.69;100.00;102487.28;5057242;28;20032;-52
2022/07/08 10:00:57;;;;;;;0.50;0.20;;;;;;;21.75;100.00;102479.13;5054419;28;20025;-58
2022/07/08 10:03:24;;;;;;;1.70;0.65;;;;;;;22.16;100.00;102472.41;5052152;28;20713;-53
2022/07/08 10:05:50;;;;;;;0.55;0.17;;;;;;;22.28;100.00;102482.50;5057441;28;20028;-49
2022/07/08 10:08:17;;;;;;;0.30;0.20;;;;;;;22.25;100.00;102477.56;5054700;28;20036;-57
2022/07/08 10:10:45;;;;;;;0.30;0.20;;;;;;;22.00;100.00;102476.47;5062949;28;20092;-53
2022/07/08 10:13:11;;;;;;;0.25;0.10;;;;;;;22.01;100.00;102466.50;5057493;28;20358;-59
2022/07/08 10:15:38;;;;;;;0.38;0.20;;;;;;;22.30;100.00;102470.44;5057627;28;20051;-56
2022/07/08 10:18:15;;;;;;;1.85;0.10;;;;;;;22.51;100.00;102473.78;5061302;28;20158;-51
2022/07/08 10:20:46;;;;;;;0.85;0.10;;;;;;;22.46;100.00;102485.28;5057033;28;20032;-58
2022/07/08 10:23:20;;;;;;;0.20;0.00;;;;;;;22.50;100.00;102466.75;5067744;28;20037;-54
2022/07/08 10:25:46;;;;;;;0.40;0.10;;;;;;;22.62;100.00;102463.09;5055794;28;20029;-52
2022/07/08 10:28:11;;;;;;;0.85;0.00;;;;;;;22.69;100.00;102463.03;5063126;28;20098;-57
2022/07/08 10:30:46;;;;;;;0.08;0.00;;;;;;;22.96;100.00;102463.53;5057219;28;20480;-50
2022/07/08 10:33:23;;;;;;;0.73;0.10;;;;;;;23.27;100.00;102459.84;5059720;28;20134;-53
2022/07/08 10:36:08;;;;;;;0.40;0.10;;;;;;;23.20;100.00;102456.41;5068793;28;20431;-58
2022/07/08 10:38:33;;;;;;;1.00;0.20;;;;;;;23.20;100.00;102461.00;5067946;28;20024;-49
2022/07/08 10:41:04;;;;;;;3.83;0.22;;;;;;;23.26;100.00;102458.22;5064741;28;20161;-56
2022/07/08 10:43:31;;;;;;;4.22;0.22;;;;;;;23.29;100.00;102456.94;5057572;28;20532;-48
2022/07/08 10:46:17;;;;;;;0.10;0.10;;;;;;;23.38;100.00;102457.44;5058535;28;20075;-49
2022/07/08 10:48:44;;;;;;;0.22;0.00;;;;;;;23.37;100.00;102458.50;5061555;28;20040;-54
2022/07/08 10:51:25;;;;;;;0.30;0.00;;;;;;;23.42;100.00;102454.03;5059724;28;20027;-54
2022/07/08 10:54:04;;;;;;;0.88;0.22;;;;;;;23.68;100.00;102452.03;5068431;28;20028;-56
2022/07/08 10:56:50;;;;;;;0.47;0.08;;;;;;;23.86;100.00;102457.41;5058944;28;20115;-52
2022/07/08 10:59:20;;;;;;;0.68;0.10;;;;;;;23.85;100.00;102460.31;5060000;28;20674;-52
2022/07/08 11:01:59;;;;;;;0.10;0.10;;;;;;;23.68;100.00;102443.91;5052280;28;20116;-56
2022/07/08 11:04:33;;;;;;;1.75;0.00;;;;;;;24.13;100.00;102452.34;5058163;28;20474;-48
2022/07/08 11:07:26;;;;;;;0.00;0.00;;;;;;;24.34;100.00;102452.84;5072899;28;20032;-54
2022/07/08 11:10:09;;;;;;;0.10;0.10;;;;;;;24.72;100.00;102443.41;5054670;28;20029;-62
2022/07/08 11:12:36;;;;;;;0.15;0.15;;;;;;;24.72;100.00;102446.13;5051336;28;20385;-53
2022/07/08 11:15:16;;;;;;;4.57;0.20;;;;;;;24.61;100.00;102434.25;5049620;28;20021;-58
2022/07/08 11:17:43;;;;;;;0.40;0.00;;;;;;;24.55;100.00;102444.16;5053665;28;20393;-57
2022/07/08 11:20:10;;;;;;;1.30;0.10;;;;;;;24.57;100.00;102441.19;5058009;28;20032;-56